createdAt,value
2023-01-25T00:01:37.164Z,12.45
2023-01-25T00:04:03.586Z,13.43
2023-01-25T00:06:29.937Z,11.85
2023-01-25T00:08:56.317Z,12.07
2023-01-25T00:11:22.761Z,11.77
2023-01-25T00:13:49.381Z,12.82
2023-01-25T00:16:15.962Z,11.77
2023-01-25T00:18:42.360Z,11.60
2023-01-25T00:21:12.591Z,11.70
2023-01-25T00:23:39.001Z,12.75
2023-01-25T00:26:06.475Z,12.00
2023-01-25T00:28:32.829Z,12.30
2023-01-25T00:31:02.681Z,12.02
2023-01-25T00:33:34.839Z,11.88
2023-01-25T00:36:01.340Z,11.55
2023-01-25T00:38:29.289Z,13.80
2023-01-25T00:40:55.764Z,12.10
2023-01-25T00:43:22.176Z,11.40
2023-01-25T00:45:48.736Z,11.20
2023-01-25T00:48:15.121Z,10.73
2023-01-25T00:50:41.525Z,14.20
2023-01-25T00:53:07.902Z,12.93
2023-01-25T00:55:34.283Z,14.43
2023-01-25T00:58:00.718Z,14.88
2023-01-25T01:00:27.079Z,13.05
2023-01-25T01:02:53.447Z,13.65
2023-01-25T01:05:19.838Z,12.93
2023-01-25T01:07:48.774Z,13.05
2023-01-25T01:10:15.261Z,15.02
2023-01-25T01:12:41.656Z,13.77
2023-01-25T01:15:08.746Z,14.95
2023-01-25T01:17:35.578Z,15.60
2023-01-25T01:20:01.967Z,17.30
2023-01-25T01:22:28.371Z,15.88
2023-01-25T01:24:54.744Z,12.00
2023-01-25T01:27:21.119Z,12.73
2023-01-25T01:29:47.539Z,13.90
2023-01-25T01:32:14.020Z,12.52
2023-01-25T01:34:40.457Z,15.98
2023-01-25T01:37:06.858Z,15.07
2023-01-25T01:39:33.312Z,13.73
2023-01-25T01:41:59.678Z,12.87
2023-01-25T01:44:46.099Z,12.73
2023-01-25T01:47:14.499Z,16.63
2023-01-25T01:49:40.989Z,15.68
2023-01-25T01:52:12.573Z,12.68
2023-01-25T01:54:39.037Z,14.10
2023-01-25T01:57:07.664Z,12.95
2023-01-25T01:59:37.555Z,15.18
2023-01-25T02:02:03.989Z,14.38
2023-01-25T02:04:30.640Z,15.38
2023-01-25T02:07:03.546Z,14.27
2023-01-25T02:09:31.525Z,14.90
2023-01-25T02:11:58.470Z,14.98
2023-01-25T02:14:26.870Z,14.65
2023-01-25T02:16:53.277Z,12.90
2023-01-25T02:19:30.016Z,13.93
2023-01-25T02:21:58.104Z,15.23
2023-01-25T02:24:28.299Z,13.98
2023-01-25T02:26:54.721Z,14.10
2023-01-25T02:29:24.137Z,14.23
2023-01-25T02:31:52.737Z,11.27
2023-01-25T02:34:19.278Z,14.25
2023-01-25T02:36:45.731Z,12.23
2023-01-25T02:39:20.273Z,10.75
2023-01-25T02:41:48.150Z,13.75
2023-01-25T02:44:21.957Z,13.20
2023-01-25T02:46:48.811Z,14.82
2023-01-25T02:49:15.715Z,12.98
2023-01-25T02:51:43.366Z,12.95
2023-01-25T02:54:10.802Z,13.50
2023-01-25T02:56:37.465Z,12.60
2023-01-25T02:59:05.725Z,12.85
2023-01-25T03:01:33.001Z,12.80
2023-01-25T03:03:59.638Z,13.52
2023-01-25T03:06:26.035Z,13.75
2023-01-25T03:08:52.409Z,11.57
2023-01-25T03:11:18.929Z,12.57
2023-01-25T03:13:45.272Z,13.75
2023-01-25T03:16:12.591Z,13.02
2023-01-25T03:18:39.231Z,13.00
2023-01-25T03:21:13.359Z,12.17
2023-01-25T03:23:39.965Z,12.65
2023-01-25T03:26:06.403Z,13.25
2023-01-25T03:28:32.827Z,12.90
2023-01-25T03:30:59.226Z,15.27
2023-01-25T03:33:25.632Z,12.83
2023-01-25T03:35:55.648Z,13.68
2023-01-25T03:38:22.292Z,13.88
2023-01-25T03:40:48.925Z,13.23
2023-01-25T03:43:15.772Z,13.80
2023-01-25T03:45:42.256Z,13.80
2023-01-25T03:48:08.743Z,13.88
2023-01-25T03:50:35.133Z,12.52
2023-01-25T03:53:07.119Z,13.75
2023-01-25T03:55:34.037Z,14.27
2023-01-25T03:58:00.517Z,14.03
2023-01-25T04:00:26.953Z,13.77
2023-01-25T04:02:53.466Z,13.63
2023-01-25T04:05:19.899Z,14.80
2023-01-25T04:07:46.270Z,14.60
2023-01-25T04:10:12.651Z,13.43
2023-01-25T04:12:39.130Z,15.07
2023-01-25T04:15:05.753Z,14.50
2023-01-25T04:17:32.173Z,13.07
2023-01-25T04:19:58.596Z,14.20
2023-01-25T04:22:24.954Z,14.00
2023-01-25T04:24:51.325Z,16.10
2023-01-25T04:27:17.776Z,13.93
2023-01-25T04:29:44.202Z,13.82
2023-01-25T04:32:10.775Z,15.00
2023-01-25T04:34:37.286Z,14.67
2023-01-25T04:37:03.713Z,14.35
2023-01-25T04:39:30.070Z,13.30
2023-01-25T04:41:56.410Z,13.93
2023-01-25T04:44:22.848Z,14.88
2023-01-25T04:46:49.569Z,14.67
2023-01-25T04:49:15.975Z,15.00
2023-01-25T04:51:42.399Z,15.05
2023-01-25T04:54:08.751Z,13.80
2023-01-25T04:56:35.561Z,14.10
2023-01-25T04:59:02.006Z,13.50
2023-01-25T05:01:28.487Z,14.45
2023-01-25T05:03:54.923Z,15.30
2023-01-25T05:06:21.389Z,15.10
2023-01-25T05:08:47.772Z,16.00
2023-01-25T05:11:14.119Z,14.97
2023-01-25T05:13:40.552Z,14.57
2023-01-25T05:16:08.959Z,15.55
2023-01-25T05:18:47.580Z,13.23
2023-01-25T05:21:33.681Z,15.07
2023-01-25T05:24:00.139Z,14.43
2023-01-25T05:26:45.224Z,13.65
2023-01-25T05:29:11.670Z,16.80
2023-01-25T05:31:38.126Z,15.52
2023-01-25T05:34:04.611Z,16.13
2023-01-25T05:36:30.959Z,17.63
2023-01-25T05:38:57.385Z,16.45
2023-01-25T05:41:23.850Z,17.92
2023-01-25T05:43:50.251Z,16.30
2023-01-25T05:46:16.679Z,15.25
2023-01-25T05:48:43.181Z,17.70
2023-01-25T05:51:09.534Z,18.08
2023-01-25T05:53:35.902Z,18.55
2023-01-25T05:56:06.103Z,17.95
2023-01-25T05:58:32.605Z,15.57
2023-01-25T06:01:02.819Z,17.63
2023-01-25T06:03:29.716Z,16.30
2023-01-25T06:05:56.788Z,17.23
2023-01-25T06:08:23.515Z,15.45
2023-01-25T06:10:50.040Z,18.10
2023-01-25T06:13:16.642Z,18.10
2023-01-25T06:15:43.243Z,16.63
2023-01-25T06:18:09.748Z,18.00
2023-01-25T06:20:36.176Z,16.23
2023-01-25T06:23:02.624Z,15.15
2023-01-25T06:25:29.018Z,18.07
2023-01-25T06:27:55.743Z,16.38
2023-01-25T06:30:22.235Z,18.65
2023-01-25T06:32:50.514Z,16.60
2023-01-25T06:35:17.023Z,20.17
2023-01-25T06:37:43.429Z,17.97
2023-01-25T06:40:10.214Z,18.05
2023-01-25T06:42:36.742Z,19.25
2023-01-25T06:45:03.168Z,18.95
2023-01-25T06:47:29.645Z,19.50
2023-01-25T06:49:56.073Z,18.97
2023-01-25T06:52:22.513Z,18.05
2023-01-25T06:54:48.885Z,19.27
2023-01-25T06:57:15.231Z,20.45
2023-01-25T06:59:41.657Z,19.25
2023-01-25T07:02:10.426Z,19.97
2023-01-25T07:04:36.825Z,17.98
2023-01-25T07:07:03.286Z,19.63
2023-01-25T07:09:29.699Z,18.55
2023-01-25T07:11:56.116Z,20.50
2023-01-25T07:14:22.507Z,18.60
2023-01-25T07:16:48.885Z,18.60
2023-01-25T07:19:15.346Z,21.10
2023-01-25T07:21:42.283Z,19.92
2023-01-25T07:24:13.370Z,20.38
2023-01-25T07:26:39.803Z,19.33
2023-01-25T07:29:06.435Z,17.98
2023-01-25T07:31:32.851Z,21.48
2023-01-25T07:33:59.324Z,21.52
2023-01-25T07:36:26.144Z,22.25
2023-01-25T07:38:53.223Z,22.57
2023-01-25T07:41:19.622Z,22.45
2023-01-25T07:43:46.059Z,20.10
2023-01-25T07:46:13.448Z,19.65
2023-01-25T07:48:40.547Z,20.05
2023-01-25T07:51:31.454Z,19.80
2023-01-25T07:53:58.953Z,20.33
2023-01-25T07:56:26.808Z,20.70
2023-01-25T07:58:56.962Z,20.25
2023-01-25T08:01:27.011Z,19.67
2023-01-25T08:03:55.715Z,22.63
2023-01-25T08:06:27.598Z,22.35
2023-01-25T08:08:55.299Z,22.00
2023-01-25T08:11:23.640Z,21.15
2023-01-25T08:13:50.227Z,23.17
2023-01-25T08:16:17.731Z,20.87
2023-01-25T08:18:47.108Z,22.60
2023-01-25T08:21:19.242Z,21.75
2023-01-25T08:23:45.829Z,21.88
2023-01-25T08:26:13.425Z,22.05
2023-01-25T08:28:40.186Z,21.97
2023-01-25T08:31:11.633Z,22.15
2023-01-25T08:33:38.706Z,24.17
2023-01-25T08:36:06.156Z,21.27
2023-01-25T08:38:32.621Z,23.90
2023-01-25T08:41:12.558Z,22.93
2023-01-25T08:43:39.375Z,21.25
2023-01-25T08:46:06.216Z,19.17
2023-01-25T08:48:32.643Z,21.05
2023-01-25T08:50:59.201Z,21.02
2023-01-25T08:53:27.267Z,20.43
2023-01-25T08:55:53.639Z,22.13
2023-01-25T08:58:22.259Z,21.17
2023-01-25T09:00:52.418Z,19.65
2023-01-25T09:03:19.404Z,20.17
2023-01-25T09:05:46.738Z,19.57
2023-01-25T09:08:13.129Z,22.42
2023-01-25T09:10:41.121Z,20.13
2023-01-25T09:13:08.732Z,20.40
2023-01-25T09:15:35.319Z,21.92
2023-01-25T09:18:02.015Z,19.70
2023-01-25T09:20:29.442Z,19.88
2023-01-25T09:22:59.429Z,20.92
2023-01-25T09:25:25.807Z,18.00
2023-01-25T09:27:52.263Z,20.73
2023-01-25T09:30:19.568Z,21.03
2023-01-25T09:32:48.699Z,19.85
2023-01-25T09:35:15.201Z,22.35
2023-01-25T09:37:41.663Z,20.65
2023-01-25T09:40:21.913Z,19.23
2023-01-25T09:43:00.108Z,20.63
2023-01-25T09:45:33.710Z,17.38
2023-01-25T09:48:04.856Z,18.80
2023-01-25T09:50:31.208Z,18.48
2023-01-25T09:53:27.006Z,19.45
2023-01-25T09:55:59.191Z,18.80
2023-01-25T09:58:31.584Z,19.27
2023-01-25T10:01:05.849Z,19.30
2023-01-25T10:03:42.977Z,21.13
2023-01-25T10:06:11.035Z,19.42
2023-01-25T10:08:38.455Z,18.67
2023-01-25T10:11:08.128Z,18.23
2023-01-25T10:13:34.644Z,19.45
2023-01-25T10:16:20.908Z,20.38
2023-01-25T10:19:09.848Z,19.88
2023-01-25T10:21:41.115Z,20.70
2023-01-25T10:24:21.935Z,19.23
2023-01-25T10:26:50.431Z,16.40
2023-01-25T10:29:19.292Z,20.75
2023-01-25T10:31:50.582Z,19.33
2023-01-25T10:34:19.280Z,19.03
2023-01-25T10:36:49.148Z,17.55
2023-01-25T10:39:15.806Z,20.55
2023-01-25T10:41:44.363Z,18.92
2023-01-25T10:44:24.414Z,16.40
2023-01-25T10:47:07.447Z,19.97
2023-01-25T10:49:40.298Z,21.52
2023-01-25T10:52:17.347Z,22.88
2023-01-25T10:54:43.922Z,14.95
2023-01-25T10:57:14.542Z,19.73
2023-01-25T10:59:43.870Z,18.53
2023-01-25T11:02:28.990Z,14.63
2023-01-25T11:04:55.417Z,15.60
2023-01-25T11:07:29.113Z,18.08
2023-01-25T11:09:55.538Z,19.80
2023-01-25T11:12:21.992Z,19.30
2023-01-25T11:14:52.188Z,20.50
2023-01-25T11:17:38.840Z,15.10
2023-01-25T11:20:17.623Z,16.88
2023-01-25T11:22:54.959Z,23.45
2023-01-25T11:25:25.420Z,18.13
2023-01-25T11:27:51.839Z,20.23
2023-01-25T11:30:21.272Z,19.17
2023-01-25T11:32:47.631Z,22.30
2023-01-25T11:35:18.908Z,19.58
2023-01-25T11:38:00.570Z,18.87
2023-01-25T11:40:26.908Z,17.75
2023-01-25T11:43:11.305Z,20.42
2023-01-25T11:45:49.699Z,20.92
2023-01-25T11:48:25.322Z,19.10
2023-01-25T11:51:27.533Z,19.77
2023-01-25T11:54:00.102Z,21.05
2023-01-25T11:56:26.483Z,23.48
2023-01-25T11:58:52.870Z,22.25
2023-01-25T12:01:22.034Z,19.50
2023-01-25T12:03:51.417Z,17.83
2023-01-25T12:06:26.879Z,19.98
2023-01-25T12:08:53.254Z,18.63
2023-01-25T12:11:22.377Z,16.80
2023-01-25T12:14:00.573Z,23.27
2023-01-25T12:16:30.042Z,24.73
2023-01-25T12:19:05.555Z,18.85
2023-01-25T12:21:50.582Z,23.77
2023-01-25T12:24:26.329Z,24.05
2023-01-25T12:27:05.547Z,16.23
2023-01-25T12:29:31.916Z,19.10
2023-01-25T12:32:01.865Z,18.35
2023-01-25T12:34:34.275Z,19.88
2023-01-25T12:37:04.615Z,16.80
2023-01-25T12:39:38.185Z,21.40
2023-01-25T12:42:07.711Z,20.40
2023-01-25T12:44:36.462Z,17.00
2023-01-25T12:47:02.924Z,18.13
2023-01-25T12:49:35.322Z,20.77
2023-01-25T12:52:06.215Z,19.35
2023-01-25T12:54:34.899Z,17.60
2023-01-25T12:57:09.653Z,21.85
2023-01-25T12:59:42.904Z,19.90
2023-01-25T13:02:38.744Z,17.83
2023-01-25T13:05:13.431Z,21.70
2023-01-25T13:07:47.538Z,25.57
2023-01-25T13:10:17.780Z,18.75
2023-01-25T13:12:54.463Z,20.77
2023-01-25T13:15:39.940Z,16.25
2023-01-25T13:18:26.997Z,22.02
2023-01-25T13:20:55.071Z,21.03
2023-01-25T13:23:27.469Z,17.75
2023-01-25T13:26:13.841Z,20.25
2023-01-25T13:28:45.754Z,17.33
2023-01-25T13:31:46.410Z,16.50
2023-01-25T13:34:44.268Z,17.90
2023-01-25T13:37:16.861Z,17.33
2023-01-25T13:40:09.701Z,18.98
2023-01-25T13:42:37.268Z,17.55
2023-01-25T13:45:13.403Z,18.38
2023-01-25T13:47:40.192Z,17.03
2023-01-25T13:50:21.195Z,17.08
2023-01-25T13:52:57.891Z,19.42
2023-01-25T13:55:24.843Z,18.88
2023-01-25T13:57:51.667Z,14.40
2023-01-25T14:00:18.666Z,14.73
2023-01-25T14:02:47.220Z,11.32
2023-01-25T14:05:21.115Z,19.13
2023-01-25T14:07:49.130Z,15.45
2023-01-25T14:10:18.883Z,24.38
2023-01-25T14:12:46.484Z,19.97
2023-01-25T14:15:22.247Z,17.95
2023-01-25T14:18:23.966Z,18.88
2023-01-25T14:20:51.504Z,22.30
2023-01-25T14:23:28.652Z,17.70
2023-01-25T14:25:56.046Z,20.40
2023-01-25T14:28:22.713Z,15.30
2023-01-25T14:30:53.425Z,14.80
2023-01-25T14:33:22.656Z,16.42
2023-01-25T14:35:55.643Z,25.17
2023-01-25T14:38:26.657Z,41.03
2023-01-25T14:41:02.758Z,27.77
2023-01-25T14:43:29.833Z,20.05
2023-01-25T14:45:56.447Z,15.35
2023-01-25T14:48:41.038Z,17.35
2023-01-25T14:51:13.585Z,17.33
2023-01-25T14:53:41.599Z,15.95
2023-01-25T14:56:34.929Z,18.17
2023-01-25T14:59:01.866Z,21.48
2023-01-25T15:01:30.720Z,19.83
2023-01-25T15:03:57.307Z,18.10
2023-01-25T15:06:23.864Z,16.73
2023-01-25T15:08:50.254Z,17.23
2023-01-25T15:12:00.248Z,17.75
2023-01-25T15:14:27.655Z,13.68
2023-01-25T15:16:56.004Z,16.73
2023-01-25T15:19:22.548Z,17.98
2023-01-25T15:21:49.029Z,16.58
2023-01-25T15:24:15.543Z,17.15
2023-01-25T15:26:41.961Z,18.23
2023-01-25T15:29:13.263Z,17.90
2023-01-25T15:31:40.045Z,18.92
2023-01-25T15:34:10.759Z,20.35
2023-01-25T15:36:37.135Z,18.60
2023-01-25T15:39:03.569Z,18.42
2023-01-25T15:41:29.985Z,15.23
2023-01-25T15:43:56.327Z,19.50
2023-01-25T15:46:25.085Z,17.30
2023-01-25T15:48:52.006Z,17.77
2023-01-25T15:51:18.676Z,19.13
2023-01-25T15:53:45.080Z,16.40
2023-01-25T15:56:18.985Z,14.68
2023-01-25T15:58:55.131Z,19.17
2023-01-25T16:01:22.901Z,17.75
2023-01-25T16:03:49.317Z,14.32
2023-01-25T16:06:31.301Z,16.93
2023-01-25T16:08:58.860Z,18.00
2023-01-25T16:11:25.596Z,17.23
2023-01-25T16:13:52.015Z,15.45
2023-01-25T16:16:20.607Z,16.77
2023-01-25T16:18:47.396Z,15.53
2023-01-25T16:21:13.776Z,16.20
2023-01-25T16:23:40.285Z,18.90
2023-01-25T16:26:15.402Z,14.15
2023-01-25T16:28:41.798Z,16.75
2023-01-25T16:31:14.653Z,12.30
2023-01-25T16:33:49.141Z,16.50
2023-01-25T16:36:17.299Z,17.88
2023-01-25T16:38:44.010Z,15.30
2023-01-25T16:41:13.272Z,18.67
2023-01-25T16:43:43.176Z,18.33
2023-01-25T16:46:14.657Z,14.93
2023-01-25T16:48:41.024Z,17.80
2023-01-25T16:51:10.120Z,13.82
2023-01-25T16:53:36.520Z,15.85
2023-01-25T16:56:02.977Z,17.50
2023-01-25T16:58:29.383Z,19.13
2023-01-25T17:00:55.852Z,16.88
2023-01-25T17:03:22.434Z,17.52
2023-01-25T17:05:48.818Z,16.83
2023-01-25T17:08:15.166Z,19.37
2023-01-25T17:10:41.555Z,16.40
2023-01-25T17:13:08.807Z,20.33
2023-01-25T17:15:35.366Z,16.70
2023-01-25T17:18:01.732Z,16.70
2023-01-25T17:20:28.092Z,18.73
2023-01-25T17:22:54.536Z,19.92
2023-01-25T17:25:20.912Z,15.63
2023-01-25T17:27:47.451Z,14.88
2023-01-25T17:30:14.137Z,11.80
2023-01-25T17:32:41.014Z,12.57
2023-01-25T17:35:07.665Z,16.13
2023-01-25T17:37:34.008Z,17.40
2023-01-25T17:40:00.474Z,16.58
2023-01-25T17:42:26.861Z,19.65
2023-01-25T17:44:53.232Z,19.23
2023-01-25T17:47:19.636Z,17.60
2023-01-25T17:49:46.463Z,19.80
2023-01-25T17:52:12.905Z,19.10
2023-01-25T17:54:40.208Z,19.15
2023-01-25T17:57:06.632Z,14.13
2023-01-25T17:59:33.116Z,12.93
2023-01-25T18:01:59.594Z,10.45
2023-01-25T18:04:26.056Z,18.35
2023-01-25T18:06:52.531Z,18.27
2023-01-25T18:09:18.988Z,16.80
2023-01-25T18:11:45.518Z,18.63
2023-01-25T18:14:12.840Z,16.98
2023-01-25T18:16:40.370Z,17.38
2023-01-25T18:19:07.936Z,19.55
2023-01-25T18:21:34.858Z,16.37
2023-01-25T18:24:03.460Z,17.60
2023-01-25T18:26:33.472Z,14.85
2023-01-25T18:29:02.778Z,17.73
2023-01-25T18:31:29.292Z,20.00
2023-01-25T18:33:56.415Z,22.37
2023-01-25T18:36:22.778Z,18.48
2023-01-25T18:38:49.170Z,18.55
2023-01-25T18:41:15.559Z,19.77
2023-01-25T18:43:41.997Z,16.52
2023-01-25T18:46:08.721Z,16.00
2023-01-25T18:48:36.056Z,21.33
2023-01-25T18:51:10.035Z,15.70
2023-01-25T18:53:37.529Z,19.20
2023-01-25T18:56:07.928Z,16.65
2023-01-25T18:58:35.987Z,17.93
2023-01-25T19:01:10.939Z,17.40
2023-01-25T19:03:37.630Z,16.05
2023-01-25T19:06:04.477Z,19.48
2023-01-25T19:08:35.635Z,19.73
2023-01-25T19:11:03.485Z,19.27
2023-01-25T19:13:32.252Z,21.35
2023-01-25T19:15:59.561Z,20.60
2023-01-25T19:18:28.732Z,15.90
2023-01-25T19:20:55.129Z,20.08
2023-01-25T19:23:21.547Z,18.63
2023-01-25T19:25:52.818Z,16.88
2023-01-25T19:28:19.233Z,18.55
2023-01-25T19:30:45.711Z,19.92
2023-01-25T19:33:12.260Z,18.27
2023-01-25T19:35:38.624Z,23.13
2023-01-25T19:38:05.018Z,17.38
2023-01-25T19:40:31.423Z,19.20
2023-01-25T19:42:57.837Z,17.30
2023-01-25T19:45:24.282Z,22.27
2023-01-25T19:47:50.700Z,19.30
2023-01-25T19:50:17.183Z,20.85
2023-01-25T19:52:43.698Z,15.70
2023-01-25T19:55:10.439Z,18.05
2023-01-25T19:57:38.348Z,21.88
2023-01-25T20:00:05.710Z,19.77
2023-01-25T20:02:32.265Z,19.13
2023-01-25T20:04:58.724Z,23.13
2023-01-25T20:07:27.749Z,14.57
2023-01-25T20:09:54.189Z,18.02
2023-01-25T20:12:20.591Z,22.52
2023-01-25T20:14:47.090Z,18.85
2023-01-25T20:17:14.204Z,16.73
2023-01-25T20:19:40.603Z,19.35
2023-01-25T20:22:07.246Z,18.48
2023-01-25T20:24:33.615Z,22.85
2023-01-25T20:26:59.999Z,19.83
2023-01-25T20:29:28.602Z,17.40
2023-01-25T20:31:55.036Z,22.77
2023-01-25T20:34:22.794Z,18.40
2023-01-25T20:36:50.165Z,19.77
2023-01-25T20:39:21.643Z,14.63
2023-01-25T20:41:48.298Z,18.57
2023-01-25T20:44:15.705Z,19.50
2023-01-25T20:46:42.396Z,17.95
2023-01-25T20:49:16.197Z,21.48
2023-01-25T20:51:42.935Z,16.75
2023-01-25T20:54:09.675Z,16.17
2023-01-25T20:56:36.228Z,15.60
2023-01-25T20:59:02.586Z,19.50
2023-01-25T21:01:30.670Z,15.50
2023-01-25T21:03:57.682Z,18.73
2023-01-25T21:06:24.741Z,12.47
2023-01-25T21:08:51.169Z,18.30
2023-01-25T21:11:17.628Z,21.75
2023-01-25T21:13:44.098Z,17.88
2023-01-25T21:16:14.977Z,19.17
2023-01-25T21:18:51.814Z,21.13
2023-01-25T21:21:19.907Z,14.75
2023-01-25T21:23:47.225Z,19.30
2023-01-25T21:26:15.024Z,15.85
2023-01-25T21:28:42.106Z,18.80
2023-01-25T21:31:09.956Z,18.57
2023-01-25T21:33:37.886Z,18.20
2023-01-25T21:36:08.429Z,16.50
2023-01-25T21:38:35.875Z,21.38
2023-01-25T21:41:02.989Z,19.77
2023-01-25T21:43:29.565Z,20.70
2023-01-25T21:46:25.267Z,16.60
2023-01-25T21:49:14.637Z,20.67
2023-01-25T21:51:51.764Z,23.60
2023-01-25T21:54:22.253Z,19.73
2023-01-25T21:56:49.480Z,17.07
2023-01-25T21:59:16.006Z,18.17
2023-01-25T22:01:45.098Z,16.08
2023-01-25T22:04:12.275Z,16.88
2023-01-25T22:06:38.994Z,22.80
2023-01-25T22:09:05.649Z,20.80
2023-01-25T22:11:32.027Z,18.65
2023-01-25T22:13:58.595Z,15.00
2023-01-25T22:16:25.349Z,20.45
2023-01-25T22:18:51.789Z,13.63
2023-01-25T22:21:22.465Z,19.70
2023-01-25T22:23:48.960Z,13.48
2023-01-25T22:26:16.705Z,16.02
2023-01-25T22:28:47.489Z,13.15
2023-01-25T22:31:21.757Z,14.70
2023-01-25T22:33:48.753Z,15.90
2023-01-25T22:36:15.813Z,19.10
2023-01-25T22:38:42.476Z,17.23
2023-01-25T22:41:12.947Z,18.63
2023-01-25T22:43:39.667Z,17.48
2023-01-25T22:46:06.720Z,19.50
2023-01-25T22:48:35.998Z,13.60
2023-01-25T22:51:03.322Z,15.98
2023-01-25T22:53:30.067Z,15.10
2023-01-25T22:56:00.941Z,11.40
2023-01-25T22:58:27.780Z,13.27
2023-01-25T23:00:54.181Z,15.20
2023-01-25T23:03:20.745Z,13.70
2023-01-25T23:05:47.171Z,15.10
2023-01-25T23:08:13.538Z,18.58
2023-01-25T23:10:39.982Z,15.73
2023-01-25T23:13:06.334Z,13.10
2023-01-25T23:15:32.747Z,17.10
2023-01-25T23:18:17.870Z,10.52
2023-01-25T23:20:44.586Z,16.33
2023-01-25T23:23:12.297Z,16.67
2023-01-25T23:25:39.278Z,17.85
2023-01-25T23:28:05.663Z,11.10
2023-01-25T23:30:32.154Z,14.60
2023-01-25T23:32:58.543Z,16.23
2023-01-25T23:35:24.936Z,12.63
2023-01-25T23:37:51.385Z,16.23
2023-01-25T23:40:17.917Z,14.32
2023-01-25T23:42:44.285Z,17.60
2023-01-25T23:45:11.217Z,15.65
2023-01-25T23:47:37.686Z,14.53
2023-01-25T23:50:05.225Z,14.25
2023-01-25T23:52:31.825Z,15.10
2023-01-25T23:54:58.270Z,11.90
2023-01-25T23:57:24.718Z,12.82
2023-01-25T23:59:51.118Z,15.23
